createdAt,value
2019-05-25T00:01:05.655Z,81.30
2019-05-25T00:03:34.739Z,81.30
2019-05-25T00:06:03.832Z,81.30
2019-05-25T00:08:32.925Z,81.40
2019-05-25T00:11:02.282Z,81.50
2019-05-25T00:13:31.351Z,81.80
2019-05-25T00:16:00.474Z,82.00
2019-05-25T00:18:30.259Z,82.20
2019-05-25T00:20:59.870Z,82.40
2019-05-25T00:23:29.012Z,83.30
2019-05-25T00:26:01.283Z,83.00
2019-05-25T00:28:30.358Z,83.20
2019-05-25T00:30:59.445Z,84.20
2019-05-25T00:33:28.517Z,83.70
2019-05-25T00:35:57.849Z,83.80
2019-05-25T00:38:26.960Z,83.70
2019-05-25T00:40:58.997Z,83.80
2019-05-25T00:43:28.595Z,83.90
2019-05-25T00:45:58.015Z,83.90
2019-05-25T00:48:27.123Z,83.90
2019-05-25T00:50:56.240Z,83.80
2019-05-25T00:53:25.578Z,83.90
2019-05-25T00:55:58.006Z,83.90
2019-05-25T00:58:27.348Z,84.00
2019-05-25T01:00:56.481Z,84.20
2019-05-25T01:03:25.699Z,84.20
2019-05-25T01:05:54.791Z,84.20
2019-05-25T01:08:23.914Z,84.30
2019-05-25T01:10:53.008Z,84.40
2019-05-25T01:13:22.143Z,84.50
2019-05-25T01:15:51.260Z,84.70
2019-05-25T01:18:20.548Z,84.90
2019-05-25T01:20:50.147Z,85.00
2019-05-25T01:23:19.224Z,85.20
2019-05-25T01:25:48.690Z,85.60
2019-05-25T01:28:17.774Z,85.80
2019-05-25T01:30:47.222Z,85.90
2019-05-25T01:33:16.695Z,86.20
2019-05-25T01:35:45.754Z,86.30
2019-05-25T01:38:14.913Z,86.80
